sensor_id;sensor_type;location;lat;lon;timestamp;pressure;altitude;pressure_sealevel;temperature;humidity
13011;BME280;6786;57.632;11.962;2024-03-22T00:01:45;100486.41;;;18.72;40.94
13011;BME280;6786;57.632;11.962;2024-03-22T00:04:14;100380.00;;;18.17;40.73
13011;BME280;6786;57.632;11.962;2024-03-22T00:06:41;100460.38;;;18.74;40.82
13011;BME280;6786;57.632;11.962;2024-03-22T00:09:09;100385.94;;;18.30;40.94
13011;BME280;6786;57.632;11.962;2024-03-22T00:11:36;100446.00;;;18.75;40.82
13011;BME280;6786;57.632;11.962;2024-03-22T00:14:03;100440.63;;;18.75;40.92
13011;BME280;6786;57.632;11.962;2024-03-22T00:16:29;100440.63;;;18.75;40.91
13011;BME280;6786;57.632;11.962;2024-03-22T00:18:57;100451.34;;;18.75;40.96
13011;BME280;6786;57.632;11.962;2024-03-22T00:21:25;100288.72;;;17.82;40.87
13011;BME280;6786;57.632;11.962;2024-03-22T00:23:52;100437.28;;;18.73;40.89
13011;BME280;6786;57.632;11.962;2024-03-22T00:26:19;100455.03;;;18.74;40.91
13011;BME280;6786;57.632;11.962;2024-03-22T00:28:46;100436.41;;;18.72;40.96
13011;BME280;6786;57.632;11.962;2024-03-22T00:31:12;100439.94;;;18.73;40.87
13011;BME280;6786;57.632;11.962;2024-03-22T00:33:39;100437.28;;;18.73;40.93
13011;BME280;6786;57.632;11.962;2024-03-22T00:36:07;100429.25;;;18.73;40.82
13011;BME280;6786;57.632;11.962;2024-03-22T00:38:36;100422.19;;;18.72;40.83
13011;BME280;6786;57.632;11.962;2024-03-22T00:41:02;100403.44;;;18.72;40.94
13011;BME280;6786;57.632;11.962;2024-03-22T00:43:30;100393.59;;;18.72;40.88
13011;BME280;6786;57.632;11.962;2024-03-22T00:45:56;100396.13;;;18.74;40.61
13011;BME280;6786;57.632;11.962;2024-03-22T00:48:24;100390.75;;;18.74;40.88
13011;BME280;6786;57.632;11.962;2024-03-22T00:50:51;100389.09;;;18.73;40.93
13011;BME280;6786;57.632;11.962;2024-03-22T00:53:18;100309.31;;;18.29;40.98
13011;BME280;6786;57.632;11.962;2024-03-22T00:55:45;100373.03;;;18.73;40.98
13011;BME280;6786;57.632;11.962;2024-03-22T00:58:17;100379.34;;;18.72;40.95
13011;BME280;6786;57.632;11.962;2024-03-22T01:00:44;100363.56;;;18.69;40.96
13011;BME280;6786;57.632;11.962;2024-03-22T01:03:11;100371.31;;;18.72;40.94
13011;BME280;6786;57.632;11.962;2024-03-22T01:05:38;100315.28;;;18.42;40.96
13011;BME280;6786;57.632;11.962;2024-03-22T01:08:06;100362.31;;;18.73;40.96
13011;BME280;6786;57.632;11.962;2024-03-22T01:10:32;100271.75;;;18.21;40.90
13011;BME280;6786;57.632;11.962;2024-03-22T01:13:01;100350.75;;;18.72;41.00
13011;BME280;6786;57.632;11.962;2024-03-22T01:15:28;100262.72;;;18.22;41.01
13011;BME280;6786;57.632;11.962;2024-03-22T01:17:55;100238.38;;;18.15;40.81
13011;BME280;6786;57.632;11.962;2024-03-22T01:20:22;100329.34;;;18.72;40.98
13011;BME280;6786;57.632;11.962;2024-03-22T01:22:49;100322.31;;;18.71;40.95
13011;BME280;6786;57.632;11.962;2024-03-22T01:25:15;100294.13;;;18.58;41.03
13011;BME280;6786;57.632;11.962;2024-03-22T01:27:42;100324.84;;;18.73;41.01
13011;BME280;6786;57.632;11.962;2024-03-22T01:30:11;100332.00;;;18.72;41.06
13011;BME280;6786;57.632;11.962;2024-03-22T01:32:38;100318.63;;;18.72;40.90
13011;BME280;6786;57.632;11.962;2024-03-22T01:35:05;100316.81;;;18.73;41.02
13011;BME280;6786;57.632;11.962;2024-03-22T01:37:32;100298.06;;;18.73;40.90
13011;BME280;6786;57.632;11.962;2024-03-22T01:39:59;100305.25;;;18.72;40.90
13011;BME280;6786;57.632;11.962;2024-03-22T01:42:26;100282.00;;;18.73;41.06
13011;BME280;6786;57.632;11.962;2024-03-22T01:44:52;100252.31;;;18.57;41.12
13011;BME280;6786;57.632;11.962;2024-03-22T01:47:21;100274.94;;;18.72;40.90
13011;BME280;6786;57.632;11.962;2024-03-22T01:49:49;100265.94;;;18.73;41.05
13011;BME280;6786;57.632;11.962;2024-03-22T01:52:18;100262.28;;;18.74;40.92
13011;BME280;6786;57.632;11.962;2024-03-22T01:54:44;100255.25;;;18.73;41.00
13011;BME280;6786;57.632;11.962;2024-03-22T01:57:11;100251.56;;;18.74;41.02
13011;BME280;6786;57.632;11.962;2024-03-22T01:59:38;100251.56;;;18.74;41.00
13011;BME280;6786;57.632;11.962;2024-03-22T02:02:06;100251.00;;;18.70;40.98
13011;BME280;6786;57.632;11.962;2024-03-22T02:04:34;100256.06;;;18.73;40.93
13011;BME280;6786;57.632;11.962;2024-03-22T02:07:01;100238.19;;;18.74;40.98
13011;BME280;6786;57.632;11.962;2024-03-22T02:09:27;100237.31;;;18.73;41.07
13011;BME280;6786;57.632;11.962;2024-03-22T02:11:55;100239.19;;;18.73;40.99
13011;BME280;6786;57.632;11.962;2024-03-22T02:14:21;100227.75;;;18.71;41.07
13011;BME280;6786;57.632;11.962;2024-03-22T02:16:48;100221.13;;;18.75;41.03
13011;BME280;6786;57.632;11.962;2024-03-22T02:19:15;100212.41;;;18.73;41.06
13011;BME280;6786;57.632;11.962;2024-03-22T02:21:44;100201.69;;;18.73;41.05
13011;BME280;6786;57.632;11.962;2024-03-22T02:24:11;100194.34;;;18.75;41.04
13011;BME280;6786;57.632;11.962;2024-03-22T02:26:39;100201.69;;;18.73;40.99
13011;BME280;6786;57.632;11.962;2024-03-22T02:29:05;100188.31;;;18.73;40.99
13011;BME280;6786;57.632;11.962;2024-03-22T02:31:33;100180.28;;;18.73;41.03
13011;BME280;6786;57.632;11.962;2024-03-22T02:33:59;100191.00;;;18.73;41.12
13011;BME280;6786;57.632;11.962;2024-03-22T02:36:28;100203.66;;;18.71;41.11
13011;BME280;6786;57.632;11.962;2024-03-22T02:38:54;100094.50;;;18.19;40.98
13011;BME280;6786;57.632;11.962;2024-03-22T02:41:23;100166.47;;;18.68;41.11
13011;BME280;6786;57.632;11.962;2024-03-22T02:43:50;100183.41;;;18.68;41.23
13011;BME280;6786;57.632;11.962;2024-03-22T02:46:17;100178.88;;;18.69;41.13
13011;BME280;6786;57.632;11.962;2024-03-22T02:48:43;100171.53;;;18.71;41.13
13011;BME280;6786;57.632;11.962;2024-03-22T02:51:10;100164.22;;;18.73;41.14
13011;BME280;6786;57.632;11.962;2024-03-22T02:53:36;100155.19;;;18.74;41.08
13011;BME280;6786;57.632;11.962;2024-03-22T02:56:04;100160.53;;;18.74;40.99
13011;BME280;6786;57.632;11.962;2024-03-22T02:58:32;100159.53;;;18.75;41.08
13011;BME280;6786;57.632;11.962;2024-03-22T03:01:00;100147.88;;;18.76;41.00
13011;BME280;6786;57.632;11.962;2024-03-22T03:03:28;100134.34;;;18.77;40.99
13011;BME280;6786;57.632;11.962;2024-03-22T03:05:55;100126.59;;;18.74;41.06
13011;BME280;6786;57.632;11.962;2024-03-22T03:08:22;100133.47;;;18.77;40.98
13011;BME280;6786;57.632;11.962;2024-03-22T03:10:49;100142.50;;;18.76;41.11
13011;BME280;6786;57.632;11.962;2024-03-22T03:13:16;100132.63;;;18.76;41.05
13011;BME280;6786;57.632;11.962;2024-03-22T03:15:44;100122.78;;;18.77;40.91
13011;BME280;6786;57.632;11.962;2024-03-22T03:18:11;100118.41;;;18.76;41.04
13011;BME280;6786;57.632;11.962;2024-03-22T03:20:38;100105.84;;;18.76;41.11
13011;BME280;6786;57.632;11.962;2024-03-22T03:23:05;100105.84;;;18.76;41.01
13011;BME280;6786;57.632;11.962;2024-03-22T03:25:32;100061.59;;;18.55;41.00
13011;BME280;6786;57.632;11.962;2024-03-22T03:27:58;100092.63;;;18.75;40.98
13011;BME280;6786;57.632;11.962;2024-03-22T03:30:25;100106.16;;;18.73;41.12
13011;BME280;6786;57.632;11.962;2024-03-22T03:32:53;100094.31;;;18.76;41.06
13011;BME280;6786;57.632;11.962;2024-03-22T03:35:20;100097.97;;;18.75;41.07
13011;BME280;6786;57.632;11.962;2024-03-22T03:37:47;100101.34;;;18.77;41.11
13011;BME280;6786;57.632;11.962;2024-03-22T03:40:14;100094.31;;;18.76;41.11
13011;BME280;6786;57.632;11.962;2024-03-22T03:42:41;100106.72;;;18.77;41.15
13011;BME280;6786;57.632;11.962;2024-03-22T03:45:08;100099.69;;;18.76;41.21
13011;BME280;6786;57.632;11.962;2024-03-22T03:47:35;100098.69;;;18.77;41.08
13011;BME280;6786;57.632;11.962;2024-03-22T03:50:04;100087.97;;;18.77;41.05
13011;BME280;6786;57.632;11.962;2024-03-22T03:52:31;100089.78;;;18.76;41.01
13011;BME280;6786;57.632;11.962;2024-03-22T03:54:58;100077.84;;;18.71;41.13
13011;BME280;6786;57.632;11.962;2024-03-22T03:57:24;100081.09;;;18.74;41.02
13011;BME280;6786;57.632;11.962;2024-03-22T03:59:52;100074.31;;;18.70;41.03
13011;BME280;6786;57.632;11.962;2024-03-22T04:02:18;100076.56;;;18.75;41.11
13011;BME280;6786;57.632;11.962;2024-03-22T04:04:46;100078.28;;;18.76;41.23
13011;BME280;6786;57.632;11.962;2024-03-22T04:07:15;100045.81;;;18.61;41.15
13011;BME280;6786;57.632;11.962;2024-03-22T04:09:42;100064.88;;;18.76;41.06
13011;BME280;6786;57.632;11.962;2024-03-22T04:12:09;100042.47;;;18.77;41.20
13011;BME280;6786;57.632;11.962;2024-03-22T04:14:36;99963.56;;;18.27;41.05
13011;BME280;6786;57.632;11.962;2024-03-22T04:17:02;100036.56;;;18.73;41.10
13011;BME280;6786;57.632;11.962;2024-03-22T04:19:29;100035.44;;;18.76;41.17
13011;BME280;6786;57.632;11.962;2024-03-22T04:21:56;100024.72;;;18.76;41.20
13011;BME280;6786;57.632;11.962;2024-03-22T04:24:24;100014.84;;;18.76;41.23
13011;BME280;6786;57.632;11.962;2024-03-22T04:26:50;100021.06;;;18.77;41.12
13011;BME280;6786;57.632;11.962;2024-03-22T04:29:18;100023.03;;;18.75;41.34
13011;BME280;6786;57.632;11.962;2024-03-22T04:31:44;100018.53;;;18.75;41.16
13011;BME280;6786;57.632;11.962;2024-03-22T04:34:11;100006.97;;;18.75;41.09
13011;BME280;6786;57.632;11.962;2024-03-22T04:36:37;100005.59;;;18.71;41.08
13011;BME280;6786;57.632;11.962;2024-03-22T04:39:05;99995.28;;;18.76;41.17
13011;BME280;6786;57.632;11.962;2024-03-22T04:41:34;100001.59;;;18.75;41.14
13011;BME280;6786;57.632;11.962;2024-03-22T04:44:01;99998.09;;;18.74;41.20
13011;BME280;6786;57.632;11.962;2024-03-22T04:46:28;99996.25;;;18.75;41.19
13011;BME280;6786;57.632;11.962;2024-03-22T04:48:54;100002.47;;;18.75;41.27
13011;BME280;6786;57.632;11.962;2024-03-22T04:51:22;100003.31;;;18.76;41.23
13011;BME280;6786;57.632;11.962;2024-03-22T04:53:48;99850.81;;;17.77;41.20
13011;BME280;6786;57.632;11.962;2024-03-22T04:56:15;99900.88;;;18.12;41.21
13011;BME280;6786;57.632;11.962;2024-03-22T04:58:43;99993.56;;;18.75;41.15
13011;BME280;6786;57.632;11.962;2024-03-22T05:01:10;99979.22;;;18.76;41.14
13011;BME280;6786;57.632;11.962;2024-03-22T05:03:38;99897.66;;;18.26;41.14
13011;BME280;6786;57.632;11.962;2024-03-22T05:06:06;99971.19;;;18.76;41.30
13011;BME280;6786;57.632;11.962;2024-03-22T05:08:33;99974.69;;;18.76;41.20
13011;BME280;6786;57.632;11.962;2024-03-22T05:11:00;99965.00;;;18.75;41.22
13011;BME280;6786;57.632;11.962;2024-03-22T05:13:26;99955.94;;;18.76;41.19
13011;BME280;6786;57.632;11.962;2024-03-22T05:15:55;99951.44;;;18.77;41.12
13011;BME280;6786;57.632;11.962;2024-03-22T05:18:21;99895.09;;;18.34;41.15
13011;BME280;6786;57.632;11.962;2024-03-22T05:20:49;99951.44;;;18.77;41.26
13011;BME280;6786;57.632;11.962;2024-03-22T05:23:15;99940.75;;;18.77;41.35
13011;BME280;6786;57.632;11.962;2024-03-22T05:25:43;99949.78;;;18.76;41.32
13011;BME280;6786;57.632;11.962;2024-03-22T05:28:10;99944.44;;;18.76;41.35
13011;BME280;6786;57.632;11.962;2024-03-22T05:30:37;99931.03;;;18.76;41.34
13011;BME280;6786;57.632;11.962;2024-03-22T05:33:05;99943.56;;;18.75;41.27
13011;BME280;6786;57.632;11.962;2024-03-22T05:35:32;99923.00;;;18.76;41.30
13011;BME280;6786;57.632;11.962;2024-03-22T05:37:58;99825.41;;;18.18;41.47
13011;BME280;6786;57.632;11.962;2024-03-22T05:40:26;99911.28;;;18.77;41.27
13011;BME280;6786;57.632;11.962;2024-03-22T05:42:53;99913.97;;;18.77;41.41
13011;BME280;6786;57.632;11.962;2024-03-22T05:45:20;99913.97;;;18.77;41.29
13011;BME280;6786;57.632;11.962;2024-03-22T05:47:46;99919.31;;;18.77;41.37
13011;BME280;6786;57.632;11.962;2024-03-22T05:50:15;99913.97;;;18.77;41.48
13011;BME280;6786;57.632;11.962;2024-03-22T05:52:41;99903.25;;;18.77;41.55
13011;BME280;6786;57.632;11.962;2024-03-22T05:55:09;99906.66;;;18.79;41.28
13011;BME280;6786;57.632;11.962;2024-03-22T05:57:35;99810.88;;;18.20;41.37
13011;BME280;6786;57.632;11.962;2024-03-22T06:00:04;99912.97;;;18.78;41.45
13011;BME280;6786;57.632;11.962;2024-03-22T06:02:30;99909.47;;;18.77;41.42
13011;BME280;6786;57.632;11.962;2024-03-22T06:04:58;99915.66;;;18.78;41.33
13011;BME280;6786;57.632;11.962;2024-03-22T06:07:26;99907.63;;;18.78;41.48
13011;BME280;6786;57.632;11.962;2024-03-22T06:09:54;99905.94;;;18.77;41.25
13011;BME280;6786;57.632;11.962;2024-03-22T06:12:20;99893.72;;;18.74;41.42
13011;BME280;6786;57.632;11.962;2024-03-22T06:14:48;99891.56;;;18.78;41.41
13011;BME280;6786;57.632;11.962;2024-03-22T06:17:14;99906.66;;;18.79;41.48
13011;BME280;6786;57.632;11.962;2024-03-22T06:19:42;99888.88;;;18.78;41.48
13011;BME280;6786;57.632;11.962;2024-03-22T06:22:08;99879.03;;;18.78;41.39
13011;BME280;6786;57.632;11.962;2024-03-22T06:24:37;99870.84;;;18.80;41.41
13011;BME280;6786;57.632;11.962;2024-03-22T06:27:04;99777.47;;;18.24;41.56
13011;BME280;6786;57.632;11.962;2024-03-22T06:29:33;99859.59;;;18.76;41.43
13011;BME280;6786;57.632;11.962;2024-03-22T06:31:59;99876.19;;;18.80;41.52
13011;BME280;6786;57.632;11.962;2024-03-22T06:34:26;99877.56;;;18.84;41.65
13011;BME280;6786;57.632;11.962;2024-03-22T06:36:53;99873.91;;;18.85;41.69
13011;BME280;6786;57.632;11.962;2024-03-22T06:39:20;99871.91;;;18.87;41.90
13011;BME280;6786;57.632;11.962;2024-03-22T06:41:47;99862.59;;;18.91;41.93
13011;BME280;6786;57.632;11.962;2024-03-22T06:44:15;99858.03;;;18.91;41.84
13011;BME280;6786;57.632;11.962;2024-03-22T06:46:42;99850.72;;;18.93;41.99
13011;BME280;6786;57.632;11.962;2024-03-22T06:49:09;99845.34;;;18.93;42.03
13011;BME280;6786;57.632;11.962;2024-03-22T06:51:36;99852.22;;;18.96;42.06
13011;BME280;6786;57.632;11.962;2024-03-22T06:54:03;99845.03;;;18.96;42.07
13011;BME280;6786;57.632;11.962;2024-03-22T06:56:30;99822.03;;;18.86;42.01
13011;BME280;6786;57.632;11.962;2024-03-22T06:58:59;99836.84;;;18.98;42.11
13011;BME280;6786;57.632;11.962;2024-03-22T07:01:26;99838.84;;;18.96;42.17
13011;BME280;6786;57.632;11.962;2024-03-22T07:03:53;99832.19;;;19.00;42.10
13011;BME280;6786;57.632;11.962;2024-03-22T07:06:19;99828.34;;;19.02;42.07
13011;BME280;6786;57.632;11.962;2024-03-22T07:08:47;99737.91;;;18.45;42.30
13011;BME280;6786;57.632;11.962;2024-03-22T07:11:13;99832.53;;;19.05;42.19
13011;BME280;6786;57.632;11.962;2024-03-22T07:13:40;99831.72;;;19.04;42.39
13011;BME280;6786;57.632;11.962;2024-03-22T07:16:08;99827.34;;;19.03;42.11
13011;BME280;6786;57.632;11.962;2024-03-22T07:18:35;99802.66;;;18.92;42.18
13011;BME280;6786;57.632;11.962;2024-03-22T07:21:02;99834.25;;;19.06;42.21
13011;BME280;6786;57.632;11.962;2024-03-22T07:23:29;99829.72;;;19.06;42.11
13011;BME280;6786;57.632;11.962;2024-03-22T07:26:05;99812.03;;;18.88;42.57
13011;BME280;6786;57.632;11.962;2024-03-22T07:28:34;99831.41;;;19.07;42.28
13011;BME280;6786;57.632;11.962;2024-03-22T07:31:01;99806.41;;;18.99;42.23
13011;BME280;6786;57.632;11.962;2024-03-22T07:33:33;99723.75;;;18.53;42.61
13011;BME280;6786;57.632;11.962;2024-03-22T07:36:02;99731.31;;;18.57;42.34
13011;BME280;6786;57.632;11.962;2024-03-22T07:38:29;99815.34;;;19.07;42.32
13011;BME280;6786;57.632;11.962;2024-03-22T07:40:55;99782.25;;;18.91;42.22
13011;BME280;6786;57.632;11.962;2024-03-22T07:43:23;99817.88;;;19.09;42.34
13011;BME280;6786;57.632;11.962;2024-03-22T07:45:49;99805.28;;;19.09;42.39
13011;BME280;6786;57.632;11.962;2024-03-22T07:48:17;99808.81;;;19.10;42.35
13011;BME280;6786;57.632;11.962;2024-03-22T07:50:44;99789.69;;;19.05;42.23
13011;BME280;6786;57.632;11.962;2024-03-22T07:53:12;99808.81;;;19.10;42.41
13011;BME280;6786;57.632;11.962;2024-03-22T07:55:39;99798.19;;;19.00;42.20
13011;BME280;6786;57.632;11.962;2024-03-22T07:58:08;99819.53;;;19.10;42.41
13011;BME280;6786;57.632;11.962;2024-03-22T08:00:35;99815.03;;;19.10;42.47
13011;BME280;6786;57.632;11.962;2024-03-22T08:03:03;99799.78;;;19.11;42.36
13011;BME280;6786;57.632;11.962;2024-03-22T08:05:30;99721.69;;;18.64;42.36
13011;BME280;6786;57.632;11.962;2024-03-22T08:08:00;99801.47;;;19.12;42.38
13011;BME280;6786;57.632;11.962;2024-03-22T08:10:27;99799.47;;;19.14;42.41
13011;BME280;6786;57.632;11.962;2024-03-22T08:12:55;99796.13;;;19.12;42.33
13011;BME280;6786;57.632;11.962;2024-03-22T08:15:22;99792.75;;;19.10;42.46
13011;BME280;6786;57.632;11.962;2024-03-22T08:17:49;99792.44;;;19.13;42.40
13011;BME280;6786;57.632;11.962;2024-03-22T08:20:15;99781.03;;;19.11;42.41
13011;BME280;6786;57.632;11.962;2024-03-22T08:22:43;99788.09;;;19.12;42.31
13011;BME280;6786;57.632;11.962;2024-03-22T08:25:11;99791.09;;;19.09;42.30
13011;BME280;6786;57.632;11.962;2024-03-22T08:27:44;99723.34;;;18.65;42.24
13011;BME280;6786;57.632;11.962;2024-03-22T08:30:12;99800.41;;;19.05;42.49
13011;BME280;6786;57.632;11.962;2024-03-22T08:32:39;99772.91;;;18.95;42.66
13011;BME280;6786;57.632;11.962;2024-03-22T08:35:06;99791.09;;;19.09;42.60
13011;BME280;6786;57.632;11.962;2024-03-22T08:37:34;99798.97;;;19.10;42.55
13011;BME280;6786;57.632;11.962;2024-03-22T08:40:21;99790.78;;;19.12;43.49
13011;BME280;6786;57.632;11.962;2024-03-22T08:42:49;99797.78;;;19.13;42.73
13011;BME280;6786;57.632;11.962;2024-03-22T08:45:15;99793.59;;;19.10;42.69
13011;BME280;6786;57.632;11.962;2024-03-22T08:48:05;99797.47;;;19.16;43.44
13011;BME280;6786;57.632;11.962;2024-03-22T08:50:32;99785.06;;;19.15;42.69
13011;BME280;6786;57.632;11.962;2024-03-22T08:52:59;99811.84;;;19.15;42.64
13011;BME280;6786;57.632;11.962;2024-03-22T08:55:30;99794.97;;;19.14;42.84
13011;BME280;6786;57.632;11.962;2024-03-22T08:57:58;99792.06;;;19.08;42.82
13011;BME280;6786;57.632;11.962;2024-03-22T09:00:24;99801.13;;;19.15;42.77
13011;BME280;6786;57.632;11.962;2024-03-22T09:02:52;99780.06;;;19.12;42.80
13011;BME280;6786;57.632;11.962;2024-03-22T09:05:21;99801.13;;;19.15;42.76
13011;BME280;6786;57.632;11.962;2024-03-22T09:07:49;99797.47;;;19.16;42.79
13011;BME280;6786;57.632;11.962;2024-03-22T09:10:16;99805.66;;;19.14;42.80
13011;BME280;6786;57.632;11.962;2024-03-22T09:12:47;99705.09;;;18.61;42.75
13011;BME280;6786;57.632;11.962;2024-03-22T09:15:13;99802.84;;;19.16;42.85
13011;BME280;6786;57.632;11.962;2024-03-22T09:17:41;99794.97;;;19.14;42.86
13011;BME280;6786;57.632;11.962;2024-03-22T09:20:29;99801.84;;;19.17;43.46
13011;BME280;6786;57.632;11.962;2024-03-22T09:22:57;99789.06;;;19.11;42.87
13011;BME280;6786;57.632;11.962;2024-03-22T09:25:23;99794.09;;;19.14;42.76
13011;BME280;6786;57.632;11.962;2024-03-22T09:27:58;99785.91;;;19.15;43.10
13011;BME280;6786;57.632;11.962;2024-03-22T09:30:26;99792.44;;;19.13;42.83
13011;BME280;6786;57.632;11.962;2024-03-22T09:32:54;99799.78;;;19.11;42.83
13011;BME280;6786;57.632;11.962;2024-03-22T09:35:21;99795.28;;;19.11;42.87
13011;BME280;6786;57.632;11.962;2024-03-22T09:37:48;99730.59;;;18.73;42.85
13011;BME280;6786;57.632;11.962;2024-03-22T09:40:15;99806.16;;;19.10;42.93
13011;BME280;6786;57.632;11.962;2024-03-22T09:42:43;99801.81;;;19.09;43.11
13011;BME280;6786;57.632;11.962;2024-03-22T09:45:12;99791.09;;;19.09;43.15
13011;BME280;6786;57.632;11.962;2024-03-22T09:47:39;99803.16;;;19.13;42.99
13011;BME280;6786;57.632;11.962;2024-03-22T09:50:07;99805.34;;;19.17;43.03
13011;BME280;6786;57.632;11.962;2024-03-22T09:52:35;99808.19;;;19.16;42.87
13011;BME280;6786;57.632;11.962;2024-03-22T09:55:05;99801.66;;;19.18;42.97
13011;BME280;6786;57.632;11.962;2024-03-22T09:57:34;99764.63;;;19.06;43.00
13011;BME280;6786;57.632;11.962;2024-03-22T10:00:02;99792.47;;;19.21;42.84
13011;BME280;6786;57.632;11.962;2024-03-22T10:02:30;99782.75;;;19.20;43.00
13011;BME280;6786;57.632;11.962;2024-03-22T10:04:56;99779.38;;;19.18;42.94
13011;BME280;6786;57.632;11.962;2024-03-22T10:07:24;99784.44;;;19.21;43.09
13011;BME280;6786;57.632;11.962;2024-03-22T10:09:51;99779.06;;;19.21;42.90
13011;BME280;6786;57.632;11.962;2024-03-22T10:12:19;99773.00;;;19.11;42.97
13011;BME280;6786;57.632;11.962;2024-03-22T10:14:47;99773.31;;;19.08;42.95
13011;BME280;6786;57.632;11.962;2024-03-22T10:17:15;99789.78;;;19.21;42.93
13011;BME280;6786;57.632;11.962;2024-03-22T10:19:43;99776.56;;;19.19;42.93
13011;BME280;6786;57.632;11.962;2024-03-22T10:22:10;99740.78;;;18.95;43.04
13011;BME280;6786;57.632;11.962;2024-03-22T10:24:37;99789.63;;;19.22;42.90
13011;BME280;6786;57.632;11.962;2024-03-22T10:27:04;99775.75;;;19.19;42.95
13011;BME280;6786;57.632;11.962;2024-03-22T10:29:30;99685.00;;;18.57;42.94
13011;BME280;6786;57.632;11.962;2024-03-22T10:31:59;99784.44;;;19.21;42.98
13011;BME280;6786;57.632;11.962;2024-03-22T10:34:27;99789.78;;;19.21;42.98
13011;BME280;6786;57.632;11.962;2024-03-22T10:36:56;99786.13;;;19.22;42.99
13011;BME280;6786;57.632;11.962;2024-03-22T10:39:26;99780.78;;;19.22;42.96
13011;BME280;6786;57.632;11.962;2024-03-22T10:41:54;99711.91;;;18.81;42.98
13011;BME280;6786;57.632;11.962;2024-03-22T10:44:21;99768.38;;;19.21;43.20
13011;BME280;6786;57.632;11.962;2024-03-22T10:46:51;99654.19;;;18.53;43.05
13011;BME280;6786;57.632;11.962;2024-03-22T10:49:20;99773.72;;;19.21;43.02
13011;BME280;6786;57.632;11.962;2024-03-22T10:51:59;99772.91;;;19.20;43.21
13011;BME280;6786;57.632;11.962;2024-03-22T10:54:32;99759.66;;;19.19;42.90
13011;BME280;6786;57.632;11.962;2024-03-22T10:57:00;99671.63;;;18.57;42.91
13011;BME280;6786;57.632;11.962;2024-03-22T10:59:33;99769.00;;;19.15;43.13
13011;BME280;6786;57.632;11.962;2024-03-22T11:02:03;99624.56;;;18.29;42.85
13011;BME280;6786;57.632;11.962;2024-03-22T11:04:30;99765.97;;;19.10;42.93
13011;BME280;6786;57.632;11.962;2024-03-22T11:06:59;99764.31;;;19.09;42.86
13011;BME280;6786;57.632;11.962;2024-03-22T11:09:26;99750.22;;;19.07;42.99
13011;BME280;6786;57.632;11.962;2024-03-22T11:11:55;99753.91;;;19.06;42.91
13011;BME280;6786;57.632;11.962;2024-03-22T11:14:23;99747.69;;;19.05;42.98
13011;BME280;6786;57.632;11.962;2024-03-22T11:16:51;99738.81;;;19.05;42.86
13011;BME280;6786;57.632;11.962;2024-03-22T11:19:17;99586.59;;;18.00;43.04
13011;BME280;6786;57.632;11.962;2024-03-22T11:21:44;99716.34;;;18.98;43.06
13011;BME280;6786;57.632;11.962;2024-03-22T11:24:12;99732.81;;;19.11;42.98
13011;BME280;6786;57.632;11.962;2024-03-22T11:26:39;99721.13;;;19.12;43.09
13011;BME280;6786;57.632;11.962;2024-03-22T11:29:07;99632.16;;;18.59;43.11
13011;BME280;6786;57.632;11.962;2024-03-22T11:31:38;99712.75;;;19.15;43.24
13011;BME280;6786;57.632;11.962;2024-03-22T11:34:05;99723.31;;;19.16;43.13
13011;BME280;6786;57.632;11.962;2024-03-22T11:36:32;99715.09;;;19.18;43.05
13011;BME280;6786;57.632;11.962;2024-03-22T11:38:58;99555.66;;;18.23;43.03
13011;BME280;6786;57.632;11.962;2024-03-22T11:41:28;99695.38;;;19.19;43.11
13011;BME280;6786;57.632;11.962;2024-03-22T11:43:56;99684.66;;;19.19;43.26
13011;BME280;6786;57.632;11.962;2024-03-22T11:46:28;99698.72;;;19.21;43.30
13011;BME280;6786;57.632;11.962;2024-03-22T11:48:54;99677.94;;;19.15;43.22
13011;BME280;6786;57.632;11.962;2024-03-22T11:51:22;99688.00;;;19.21;43.14
13011;BME280;6786;57.632;11.962;2024-03-22T11:53:49;99685.16;;;19.22;43.22
13011;BME280;6786;57.632;11.962;2024-03-22T11:56:18;99689.69;;;19.22;43.20
13011;BME280;6786;57.632;11.962;2024-03-22T11:58:48;99680.66;;;19.23;43.25
13011;BME280;6786;57.632;11.962;2024-03-22T12:01:16;99691.38;;;19.23;43.25
13011;BME280;6786;57.632;11.962;2024-03-22T12:03:43;99701.22;;;19.22;43.22
13011;BME280;6786;57.632;11.962;2024-03-22T12:06:11;99703.09;;;19.22;43.35
13011;BME280;6786;57.632;11.962;2024-03-22T12:08:37;99700.75;;;19.19;43.21
13011;BME280;6786;57.632;11.962;2024-03-22T12:11:07;99666.44;;;18.89;43.38
13011;BME280;6786;57.632;11.962;2024-03-22T12:13:34;99708.28;;;19.23;43.25
13011;BME280;6786;57.632;11.962;2024-03-22T12:16:04;99653.44;;;19.02;43.31
13011;BME280;6786;57.632;11.962;2024-03-22T12:18:30;99693.88;;;19.24;43.41
13011;BME280;6786;57.632;11.962;2024-03-22T12:20:58;99619.84;;;18.74;43.30
13011;BME280;6786;57.632;11.962;2024-03-22T12:23:24;99686.88;;;19.23;43.29
13011;BME280;6786;57.632;11.962;2024-03-22T12:25:51;99689.69;;;19.22;43.34
13011;BME280;6786;57.632;11.962;2024-03-22T12:28:18;99703.75;;;19.24;43.14
13011;BME280;6786;57.632;11.962;2024-03-22T12:30:47;99687.69;;;19.24;43.46
13011;BME280;6786;57.632;11.962;2024-03-22T12:33:15;99682.31;;;19.24;43.27
13011;BME280;6786;57.632;11.962;2024-03-22T12:35:43;99600.97;;;18.75;43.30
13011;BME280;6786;57.632;11.962;2024-03-22T12:38:11;99687.69;;;19.24;43.40
13011;BME280;6786;57.632;11.962;2024-03-22T12:40:39;99685.00;;;19.24;43.50
13011;BME280;6786;57.632;11.962;2024-03-22T12:43:06;99673.78;;;19.20;43.40
13011;BME280;6786;57.632;11.962;2024-03-22T12:45:33;99677.97;;;19.23;43.30
13011;BME280;6786;57.632;11.962;2024-03-22T12:48:00;99682.31;;;19.24;43.40
13011;BME280;6786;57.632;11.962;2024-03-22T12:50:28;99686.69;;;19.25;43.46
13011;BME280;6786;57.632;11.962;2024-03-22T12:52:54;99612.50;;;18.76;43.52
13011;BME280;6786;57.632;11.962;2024-03-22T12:55:22;99680.34;;;19.26;43.54
13011;BME280;6786;57.632;11.962;2024-03-22T12:57:48;99677.66;;;19.26;43.42
13011;BME280;6786;57.632;11.962;2024-03-22T13:00:16;99673.31;;;19.25;43.54